Time;durP1;ratioP1;P1;durP2;ratioP2;P2;SDS_P1;SDS_P2;PMS_P1;PMS_P2;Temp;Humidity;BMP_temperature;BMP_pressure;BME280_temperature;BME280_humidity;BME280_pressure;Samples;Min_cycle;Max_cycle;Signal;HPM_P1;HPM_P2
2023/10/11 00:00:44;;;;;;;;;17.00;15.50;;;;;19.28;68.67;100720.13;5080494;27;45317;-73
2023/10/11 00:03:17;;;;;;;;;18.00;17.25;;;;;19.32;68.71;100720.97;5080028;27;46061;-78
2023/10/11 00:05:45;;;;;;;;;16.75;16.25;;;;;19.37;68.67;100719.19;5094815;27;45951;-79
2023/10/11 00:08:13;;;;;;;;;21.00;18.25;;;;;19.39;69.07;100715.66;5067696;27;45548;-72
2023/10/11 00:10:47;;;;;;;;;20.25;18.25;;;;;19.33;68.49;100701.56;5099548;27;45639;-73
2023/10/11 00:13:17;;;;;;;;;16.75;16.00;;;;;19.42;68.16;100718.31;5099375;27;46258;-73
2023/10/11 00:15:49;;;;;;;;;18.00;15.25;;;;;19.43;67.47;100722.69;5098586;27;45650;-80
2023/10/11 00:18:19;;;;;;;;;15.75;14.50;;;;;19.08;67.18;100664.56;5099370;27;45364;-73
2023/10/11 00:20:52;;;;;;;;;13.50;12.75;;;;;19.41;66.66;100713.00;5099955;27;45360;-80
2023/10/11 00:23:22;;;;;;;;;16.25;15.00;;;;;19.44;67.00;100721.81;5098884;27;46113;-80
2023/10/11 00:25:53;;;;;;;;;16.25;15.00;;;;;19.44;66.95;100715.66;5099410;27;45507;-80
2023/10/11 00:28:23;;;;;;;;;15.50;14.25;;;;;19.41;66.87;100716.53;5099441;27;45458;-80
2023/10/11 00:30:51;;;;;;;;;14.75;13.75;;;;;19.24;67.06;100682.16;5099906;27;45544;-80
2023/10/11 00:33:16;;;;;;;;;16.00;15.50;;;;;19.44;67.68;100719.19;5099446;27;45490;-80
2023/10/11 00:35:50;;;;;;;;;20.00;16.50;;;;;19.45;67.53;100712.09;5098827;27;45261;-78
2023/10/11 00:38:18;;;;;;;;;16.00;15.50;;;;;19.45;67.97;100717.41;5099720;27;45233;-80
2023/10/11 00:41:12;;;;;;;;;16.25;16.25;;;;;19.45;67.42;100723.56;5099542;27;45528;-80
2023/10/11 00:43:39;;;;;;;;;16.25;16.00;;;;;19.45;67.29;100720.03;5098538;27;45606;-78
2023/10/11 00:46:10;;;;;;;;;16.50;16.00;;;;;19.42;67.75;100720.06;5099485;27;45497;-80
2023/10/11 00:48:51;;;;;;;;;17.25;15.75;;;;;19.33;67.87;100696.25;5099231;27;45522;-80
2023/10/11 00:51:23;;;;;;;;;16.25;15.50;;;;;19.38;68.36;100710.38;5098807;27;45916;-72
2023/10/11 00:53:50;;;;;;;;;19.75;18.50;;;;;19.40;68.34;100713.91;5097758;27;45612;-72
2023/10/11 00:56:18;;;;;;;;;20.25;18.00;;;;;19.39;68.51;100709.47;5098962;27;45427;-72
2023/10/11 00:58:44;;;;;;;;;20.00;18.25;;;;;19.22;68.18;100685.72;5099197;27;45395;-73
2023/10/11 01:01:11;;;;;;;;;17.75;17.75;;;;;19.34;67.88;100705.94;5098809;27;45353;-72
2023/10/11 01:03:37;;;;;;;;;16.50;16.00;;;;;19.32;68.01;100703.34;5098521;27;46060;-74
2023/10/11 01:06:04;;;;;;;;;18.75;16.75;;;;;19.26;68.26;100696.28;5089194;27;45473;-73
2023/10/11 01:08:48;;;;;;;;;21.25;19.00;;;;;19.21;68.39;100698.06;5098138;27;45479;-74
2023/10/11 01:11:15;;;;;;;;;18.00;16.50;;;;;19.33;68.48;100704.19;5072495;27;45216;-73
2023/10/11 01:13:42;;;;;;;;;15.00;14.25;;;;;19.31;68.17;100704.19;5098793;27;45487;-73
2023/10/11 01:16:14;;;;;;;;;16.75;15.75;;;;;19.39;68.35;100702.41;5098766;27;45561;-72
2023/10/11 01:18:41;;;;;;;;;17.50;17.50;;;;;19.40;68.12;100700.66;5098377;27;45554;-73
2023/10/11 01:21:08;;;;;;;;;35.75;32.50;;;;;19.39;68.61;100699.75;5099041;27;45573;-72
2023/10/11 01:23:35;;;;;;;;;16.75;16.00;;;;;19.41;68.15;100700.63;5098230;27;46002;-73
2023/10/11 01:26:08;;;;;;;;;19.00;17.00;;;;;19.38;68.02;100694.47;5098491;27;45469;-74
2023/10/11 01:28:41;;;;;;;;;17.50;15.50;;;;;19.25;68.40;100670.66;5098967;27;45400;-72
2023/10/11 01:31:08;;;;;;;;;16.00;15.00;;;;;19.37;68.10;100682.09;5097968;27;46190;-73
2023/10/11 01:33:42;;;;;;;;;20.50;17.25;;;;;19.37;68.55;100684.75;5097794;27;45531;-73
2023/10/11 01:36:12;;;;;;;;;17.25;14.75;;;;;19.36;68.45;100682.97;5098253;27;45449;-72
2023/10/11 01:38:49;;;;;;;;;14.75;14.50;;;;;19.35;68.87;100678.59;5097566;27;45284;-76
2023/10/11 01:41:18;;;;;;;;;17.00;16.00;;;;;19.33;68.89;100677.72;5098350;27;45379;-72
2023/10/11 01:43:46;;;;;;;;;17.75;16.00;;;;;19.19;68.17;100646.84;5097973;27;45620;-72
2023/10/11 01:46:18;;;;;;;;;16.25;15.00;;;;;19.05;68.26;100630.16;5098010;27;45587;-72
2023/10/11 01:48:46;;;;;;;;;15.00;15.00;;;;;19.25;68.70;100668.00;5098571;27;45470;-73
2023/10/11 01:51:16;;;;;;;;;15.75;15.00;;;;;19.01;68.35;100639.00;5098112;27;45307;-73
2023/10/11 01:53:44;;;;;;;;;16.25;16.25;;;;;19.06;68.54;100655.75;5097934;27;46002;-73
2023/10/11 01:56:10;;;;;;;;;16.00;16.00;;;;;18.97;68.92;100647.81;5096921;27;45440;-72
2023/10/11 01:58:37;;;;;;;;;18.00;17.00;;;;;18.87;69.20;100624.00;5097538;27;45488;-73
2023/10/11 02:01:05;;;;;;;;;20.50;19.00;;;;;18.77;69.07;100609.00;5097854;27;45405;-73
2023/10/11 02:03:31;;;;;;;;;17.25;15.75;;;;;19.07;69.05;100657.50;5096236;27;47287;-72
2023/10/11 02:05:57;;;;;;;;;17.50;16.00;;;;;19.09;69.10;100663.66;5097395;27;45633;-73
2023/10/11 02:08:25;;;;;;;;;16.00;15.00;;;;;19.08;69.56;100656.63;5097534;27;45517;-73
2023/10/11 02:10:51;;;;;;;;;17.25;15.25;;;;;18.87;69.53;100620.50;5095772;27;45994;-73
2023/10/11 02:13:17;;;;;;;;;17.50;17.00;;;;;18.98;70.23;100644.28;5095678;27;46372;-73
2023/10/11 02:15:47;;;;;;;;;18.75;16.25;;;;;18.97;70.13;100655.75;5096943;27;45515;-72
2023/10/11 02:18:12;;;;;;;;;16.75;16.75;;;;;18.01;69.80;100480.47;5097336;27;45760;-73
2023/10/11 02:20:47;;;;;;;;;19.00;16.50;;;;;19.00;69.77;100634.56;5098057;27;45442;-73
2023/10/11 02:23:12;;;;;;;;;18.00;16.75;;;;;18.92;69.77;100621.38;5098391;27;45466;-72
2023/10/11 02:25:41;;;;;;;;;18.00;17.50;;;;;19.04;69.45;100645.16;5098302;27;45420;-79
2023/10/11 02:28:09;;;;;;;;;16.50;15.00;;;;;18.99;69.05;100628.38;5098560;27;45309;-73
2023/10/11 02:30:38;;;;;;;;;21.50;18.50;;;;;19.05;68.15;100638.09;5098593;27;45268;-73
2023/10/11 02:33:07;;;;;;;;;21.50;17.25;;;;;19.02;68.17;100635.44;5098178;27;46129;-76
2023/10/11 02:35:51;;;;;;;;;17.50;16.00;;;;;18.90;68.60;100622.25;5098257;27;45483;-80
2023/10/11 02:38:22;;;;;;;;;18.25;16.50;;;;;18.95;68.67;100639.00;5098438;27;45498;-80
2023/10/11 02:40:55;;;;;;;;;18.25;17.25;;;;;18.90;68.99;100644.31;5097083;27;45571;-79
2023/10/11 02:43:25;;;;;;;;;21.00;17.25;;;;;18.90;69.59;100646.06;5098168;27;45471;-79
2023/10/11 02:45:52;;;;;;;;;20.00;16.75;;;;;18.68;69.04;100617.88;5098136;27;45484;-79
2023/10/11 02:48:21;;;;;;;;;17.75;16.75;;;;;18.87;68.78;100652.25;5098092;27;45440;-79
2023/10/11 02:50:49;;;;;;;;;18.50;15.50;;;;;18.86;69.06;100643.44;5096792;27;45586;-79
2023/10/11 02:53:21;;;;;;;;;20.00;19.00;;;;;18.67;69.53;100608.16;5096466;27;45484;-80
2023/10/11 02:55:57;;;;;;;;;19.50;17.75;;;;;18.86;69.42;100631.94;5097850;27;45380;-79
2023/10/11 02:58:29;;;;;;;;;17.75;16.25;;;;;18.88;68.98;100635.50;5096233;27;45662;-79
2023/10/11 03:01:05;;;;;;;;;19.75;16.50;;;;;18.90;69.13;100640.78;5096558;27;45482;-80
2023/10/11 03:03:31;;;;;;;;;20.50;17.00;;;;;18.83;69.07;100616.09;5097129;27;46167;-80
2023/10/11 03:05:57;;;;;;;;;19.00;17.00;;;;;18.83;69.45;100627.56;5096418;27;45421;-72
2023/10/11 03:08:26;;;;;;;;;16.75;14.75;;;;;18.83;69.78;100627.56;5096284;27;45405;-75
2023/10/11 03:11:04;;;;;;;;;18.50;17.00;;;;;18.79;69.84;100627.53;5096829;27;45384;-73
2023/10/11 03:13:32;;;;;;;;;24.00;21.50;;;;;18.81;69.91;100633.75;5096928;27;46056;-73
2023/10/11 03:16:00;;;;;;;;;17.25;17.00;;;;;18.81;70.07;100623.16;5096019;27;45455;-73
2023/10/11 03:18:31;;;;;;;;;18.25;16.25;;;;;18.76;70.02;100628.44;5096478;27;45592;-73
2023/10/11 03:21:19;;;;;;;;;18.50;16.25;;;;;18.73;69.96;100625.78;5095679;27;45455;-73
2023/10/11 03:23:49;;;;;;;;;15.50;14.00;;;;;18.78;69.91;100626.69;5095022;27;45539;-72
2023/10/11 03:26:38;;;;;;;;;19.75;16.50;;;;;18.70;70.34;100601.97;5096611;27;45661;-72
2023/10/11 03:29:04;;;;;;;;;19.00;17.25;;;;;18.64;70.39;100602.88;5096687;27;45312;-72
2023/10/11 03:31:42;;;;;;;;;16.00;16.00;;;;;18.78;70.13;100618.72;5099926;27;45387;-72
2023/10/11 03:34:10;;;;;;;;;16.75;15.50;;;;;18.73;70.17;100615.19;5100026;27;46221;-72
2023/10/11 03:36:49;;;;;;;;;19.50;18.25;;;;;18.77;69.69;100614.31;5099883;27;45425;-73
2023/10/11 03:39:26;;;;;;;;;16.50;16.25;;;;;18.77;69.78;100627.53;5099628;27;45515;-72
2023/10/11 03:41:59;;;;;;;;;14.00;13.25;;;;;18.75;69.51;100616.06;5071609;27;45578;-73
2023/10/11 03:44:28;;;;;;;;;19.50;18.75;;;;;18.71;69.68;100618.75;5099948;27;46207;-73
2023/10/11 03:46:54;;;;;;;;;19.00;17.50;;;;;18.58;69.81;100610.84;5100141;27;45557;-77
2023/10/11 03:51:50;;;;;;;;;19.00;18.50;;;;;18.61;69.86;100633.75;5099290;27;45434;-74
2023/10/11 03:54:21;;;;;;;;;18.25;16.50;;;;;18.42;70.23;100591.47;5085306;27;45536;-73
2023/10/11 03:56:53;;;;;;;;;21.25;17.50;;;;;18.56;70.26;100611.72;5099262;27;45486;-72
2023/10/11 03:59:20;;;;;;;;;17.00;16.00;;;;;18.59;70.13;100631.09;5098654;27;45347;-73
2023/10/11 04:01:46;;;;;;;;;16.25;15.00;;;;;18.33;69.86;100577.38;5100432;27;45739;-72
2023/10/11 04:04:12;;;;;;;;;16.50;16.00;;;;;18.55;70.06;100626.72;5099758;27;46188;-72
2023/10/11 04:06:38;;;;;;;;;17.00;17.00;;;;;18.53;70.81;100630.25;5096141;27;45469;-73
2023/10/11 04:09:04;;;;;;;;;19.25;17.00;;;;;17.99;70.76;100537.75;5100223;27;45345;-73
2023/10/11 04:12:10;;;;;;;;;20.75;18.00;;;;;18.35;70.58;100608.22;5099900;27;45477;-73
2023/10/11 04:14:40;;;;;;;;;16.00;16.00;;;;;18.37;70.58;100611.75;5096405;27;45382;-80
2023/10/11 04:19:50;;;;;;;;;18.75;16.50;;;;;18.45;70.82;100609.09;5099374;27;45522;-79
2023/10/11 04:22:18;;;;;;;;;17.00;17.00;;;;;18.43;70.58;100605.56;5098928;27;45561;-80
2023/10/11 04:24:46;;;;;;;;;18.00;16.50;;;;;18.51;70.60;100624.94;5098900;27;45625;-80
2023/10/11 04:29:47;;;;;;;;;19.50;17.00;;;;;18.47;70.19;100624.06;5098650;27;45496;-74
2023/10/11 04:32:14;;;;;;;;;14.25;14.00;;;;;18.32;70.13;100597.63;5099255;27;45535;-73
2023/10/11 04:34:52;;;;;;;;;16.75;16.50;;;;;18.19;69.97;100580.03;5098930;27;45443;-73
2023/10/11 04:37:43;;;;;;;;;16.25;16.00;;;;;18.42;70.02;100627.59;5099008;27;45664;-79
2023/10/11 04:40:48;;;;;;;;;17.75;15.75;;;;;18.42;70.22;100623.22;5071863;27;45539;-73
2023/10/11 04:43:08;;;;;;;;;18.25;17.50;;;;;18.46;69.99;100622.31;5095926;27;45405;-72
2023/10/11 04:45:44;;;;;;;;;16.25;15.00;;;;;18.37;69.75;100614.38;5098821;27;45351;-73
2023/10/11 04:48:18;;;;;;;;;18.00;16.25;;;;;18.40;69.82;100624.06;5098358;27;45487;-74
2023/10/11 04:50:47;;;;;;;;;20.00;18.50;;;;;18.22;69.74;100591.50;5099230;27;45633;-73
2023/10/11 04:53:18;;;;;;;;;20.00;19.25;;;;;18.39;69.76;100625.84;5098673;27;45507;-73
2023/10/11 04:55:58;;;;;;;;;18.50;17.50;;;;;18.38;69.88;100623.19;5098720;27;46052;-73
2023/10/11 04:58:51;;;;;;;;;22.00;20.75;;;;;18.35;69.57;100612.63;5096791;27;45426;-73
2023/10/11 05:01:28;;;;;;;;;19.75;18.25;;;;;18.37;69.33;100611.75;5097423;27;45403;-72
2023/10/11 05:04:00;;;;;;;;;16.75;15.00;;;;;18.34;69.86;100616.16;5098973;27;45473;-78
2023/10/11 05:06:39;;;;;;;;;16.50;15.25;;;;;18.31;69.80;100617.03;5098360;27;46275;-72
2023/10/11 05:09:12;;;;;;;;;19.00;17.50;;;;;18.11;69.47;100587.97;5099032;27;45443;-73
2023/10/11 05:11:43;;;;;;;;;18.75;16.25;;;;;18.29;69.43;100621.44;5099682;27;45321;-72
2023/10/11 05:16:59;;;;;;;;;17.00;15.50;;;;;18.14;70.09;100605.56;5098412;27;45855;-72
2023/10/11 05:19:26;;;;;;;;;17.50;16.00;;;;;18.22;69.95;100619.66;5097245;27;45490;-73
2023/10/11 05:21:53;;;;;;;;;18.50;17.50;;;;;18.01;70.31;100587.09;5098613;27;45418;-72
2023/10/11 05:27:04;;;;;;;;;18.50;17.75;;;;;18.16;70.13;100615.25;5097348;27;45537;-74
2023/10/11 05:29:36;;;;;;;;;19.75;18.75;;;;;18.05;70.09;100593.25;5097795;27;45408;-73
2023/10/11 05:32:23;;;;;;;;;19.50;18.25;;;;;18.18;70.00;100609.97;5098298;27;45428;-72
2023/10/11 05:35:07;;;;;;;;;17.50;17.00;;;;;18.11;69.77;100595.91;5097836;27;45499;-72
2023/10/11 05:51:13;;;;;;;;;19.25;18.75;;;;;18.45;67.39;100604.66;5098001;27;45404;-79
2023/10/11 05:53:42;;;;;;;;;22.00;20.50;;;;;18.53;67.09;100603.78;5098295;27;45295;-79
2023/10/11 05:56:20;;;;;;;;;17.25;17.25;;;;;18.65;66.83;100611.69;5097948;27;45413;-79
2023/10/11 05:58:52;;;;;;;;;21.00;18.50;;;;;18.44;66.19;100570.28;5089613;27;46109;-72
2023/10/11 06:01:23;;;;;;;;;19.25;15.50;;;;;18.76;65.48;100604.63;5097595;27;45674;-72
2023/10/11 06:03:52;;;;;;;;;16.50;15.25;;;;;18.88;65.01;100615.19;5096875;27;45419;-76
2023/10/11 06:06:26;;;;;;;;;19.00;16.50;;;;;18.95;65.28;100610.75;5097618;27;45578;-73
2023/10/11 06:08:52;;;;;;;;;16.00;15.00;;;;;19.03;63.99;100608.97;5092177;27;46185;-73
2023/10/11 06:11:19;;;;;;;;;19.50;17.75;;;;;18.89;63.76;100568.44;5097808;27;45414;-79
2023/10/11 06:13:50;;;;;;;;;20.75;18.00;;;;;19.21;63.87;100605.34;5097807;27;45490;-79
2023/10/11 06:16:16;;;;;;;;;19.00;18.75;;;;;19.26;63.80;100619.47;5097143;27;45314;-79
2023/10/11 06:18:58;;;;;;;;;20.75;19.00;;;;;19.26;64.27;100611.53;5065679;27;46033;-72
2023/10/11 06:21:30;;;;;;;;;23.50;22.75;;;;;19.27;63.97;100618.56;5097295;27;45518;-73
2023/10/11 06:24:05;;;;;;;;;22.50;20.00;;;;;19.30;64.10;100612.41;5097298;27;45495;-82
2023/10/11 06:29:03;;;;;;;;;23.75;22.50;;;;;19.40;63.48;100618.53;5096717;27;45725;-79
2023/10/11 06:31:45;;;;;;;;;22.00;20.50;;;;;19.42;63.94;100617.63;5096643;27;45445;-72
2023/10/11 06:34:26;;;;;;;;;25.50;23.75;;;;;19.49;63.85;100623.75;5096122;27;45405;-72
2023/10/11 06:36:53;;;;;;;;;24.00;22.50;;;;;19.43;64.04;100608.78;5096977;27;45555;-74
2023/10/11 06:42:14;;;;;;;;;26.75;24.75;;;;;19.48;63.59;100607.00;5096876;27;45589;-72
2023/10/11 06:45:00;;;;;;;;;23.50;22.00;;;;;19.43;63.31;100589.34;5096460;27;45837;-79
2023/10/11 06:47:36;;;;;;;;;26.50;21.75;;;;;19.71;63.01;100628.94;5097352;27;45514;-79
2023/10/11 06:50:14;;;;;;;;;18.00;17.00;;;;;19.68;63.18;100619.25;5097231;27;46095;-79
2023/10/11 06:52:44;;;;;;;;;18.50;17.75;;;;;19.77;63.27;100632.47;5067575;27;45461;-72
2023/10/11 06:55:15;;;;;;;;;21.00;18.25;;;;;19.80;63.21;100636.88;5096992;27;45531;-77
2023/10/11 06:57:50;;;;;;;;;20.25;19.00;;;;;19.64;62.77;100589.22;5097194;27;45380;-78
2023/10/11 07:00:50;;;;;;;;;21.00;19.00;;;;;19.92;62.75;100634.13;5093575;27;46160;-73
2023/10/11 07:03:52;;;;;;;;;21.50;20.25;;;;;20.01;62.42;100635.84;5094756;27;45417;-77
2023/10/11 07:06:10;;;;;;;;;17.50;15.50;;;;;20.04;61.75;100635.81;5075851;27;45465;-78
2023/10/11 07:08:36;;;;;;;;;19.50;18.50;;;;;20.12;62.24;100635.78;5094982;27;45567;-72
2023/10/11 07:13:30;;;;;;;;;19.50;19.50;;;;;20.19;61.22;100637.47;5096721;27;45474;-79
2023/10/11 07:16:08;;;;;;;;;20.25;19.00;;;;;20.25;61.75;100638.31;5096085;27;45533;-72
2023/10/11 07:18:39;;;;;;;;;22.00;18.25;;;;;20.35;61.47;100638.22;5095878;27;45508;-72
2023/10/11 07:21:07;;;;;;;;;19.75;18.25;;;;;20.40;61.20;100629.31;5096289;27;45474;-72
2023/10/11 07:29:00;;;;;;;;;18.00;17.00;;;;;20.93;59.77;100636.78;5096455;27;45274;-79
2023/10/11 07:31:32;;;;;;;;;13.50;11.50;;;;;20.91;59.68;100612.91;5096124;27;45497;-80
2023/10/11 07:34:06;;;;;;;;;18.00;17.25;;;;;21.12;60.30;100646.31;5095093;27;45519;-72
2023/10/11 07:36:39;;;;;;;;;15.25;15.00;;;;;21.26;60.27;100639.03;5095831;27;45542;-74
2023/10/11 07:41:52;;;;;;;;;13.75;13.25;;;;;24.06;53.24;100520.19;5095745;27;45585;-72
2023/10/11 07:44:18;;;;;;;;;16.33;15.33;;;;;26.67;49.34;100627.25;5096187;27;45406;-72
2023/10/11 07:46:45;;;;;;;;;12.33;11.00;;;;;28.19;45.20;100633.97;5095948;27;45417;-74
2023/10/11 07:49:14;;;;;;;;;15.00;12.67;;;;;29.24;43.63;100616.84;5096210;27;45595;-72
2023/10/11 07:51:40;;;;;;;;;15.33;14.00;;;;;30.06;41.15;100627.31;5095082;27;46395;-72
2023/10/11 07:54:07;;;;;;;;;13.67;13.67;;;;;30.83;40.86;100636.84;5095583;27;45499;-80
2023/10/11 07:56:37;;;;;;;;;15.67;14.00;;;;;31.74;40.50;100631.91;5095565;27;45404;-80
2023/10/11 07:59:07;;;;;;;;;16.33;15.00;;;;;32.65;38.36;100640.13;5095772;27;45501;-74
2023/10/11 08:01:42;;;;;;;;;17.33;15.00;;;;;32.99;37.00;100582.09;5095657;27;45427;-73
2023/10/11 08:04:11;;;;;;;;;14.33;13.00;;;;;33.84;36.02;100618.19;5094881;27;45480;-72
2023/10/11 08:06:40;;;;;;;;;13.67;13.00;;;;;34.54;34.68;100637.91;5095684;27;45368;-73
2023/10/11 08:09:06;;;;;;;;;16.33;13.67;;;;;35.12;33.86;100631.13;5095624;27;45638;-73
2023/10/11 08:11:45;;;;;;;;;14.00;13.00;;;;;35.67;32.22;100637.16;5095449;27;45438;-73
2023/10/11 08:14:14;;;;;;;;;15.33;12.67;;;;;36.21;31.22;100633.13;5094769;27;45537;-74
2023/10/11 08:16:41;;;;;;;;;15.67;14.00;;;;;36.48;31.70;100630.16;5064814;27;45788;-81
2023/10/11 08:19:07;;;;;;;;;12.33;11.67;;;;;36.51;30.46;100556.47;5098829;27;45709;-74
2023/10/11 08:21:33;;;;;;;;;15.00;14.00;;;;;37.37;29.59;100624.97;5098725;27;45825;-74
2023/10/11 08:23:58;;;;;;;;;16.33;14.33;;;;;37.55;30.08;100628.91;5098463;27;45346;-74
2023/10/11 08:26:25;;;;;;;;;14.00;12.67;;;;;37.58;30.02;100635.97;5099131;27;45490;-74
2023/10/11 08:28:51;;;;;;;;;13.33;12.67;;;;;37.59;30.65;100621.38;5099378;27;45488;-74
2023/10/11 08:32:01;;;;;;;;;13.00;12.00;;;;;37.77;31.61;100638.94;5099114;27;45380;-75
2023/10/11 08:34:07;;;;;;;;;14.33;13.00;;;;;38.16;30.37;100639.34;5095337;27;45719;-74
2023/10/11 08:36:35;;;;;;;;;13.00;12.33;;;;;38.47;28.34;100638.56;5099137;27;45513;-74
2023/10/11 08:39:06;;;;;;;;;13.67;12.33;;;;;38.77;27.48;100626.84;5099452;27;45560;-82
2023/10/11 08:41:35;;;;;;;;;13.33;13.00;;;;;39.16;27.46;100629.81;5098471;27;46141;-82
2023/10/11 08:44:08;;;;;;;;;12.67;12.67;;;;;39.49;26.32;100634.13;5098197;27;45417;-82
2023/10/11 08:46:38;;;;;;;;;15.00;11.67;;;;;39.72;26.62;100636.63;5098801;27;45589;-82
2023/10/11 08:49:04;;;;;;;;;11.67;10.67;;;;;39.72;25.83;100626.56;5098732;27;45371;-83
2023/10/11 08:51:36;;;;;;;;;12.00;12.00;;;;;40.06;25.17;100639.88;5098531;27;45444;-74
2023/10/11 08:54:11;;;;;;;;;12.33;12.00;;;;;40.20;25.21;100638.56;5097432;27;47120;-81
2023/10/11 08:56:44;;;;;;;;;12.67;12.00;;;;;40.19;25.81;100649.66;5098657;27;45219;-75
2023/10/11 08:59:15;;;;;;;;;11.67;10.33;;;;;40.08;25.53;100623.31;5099018;27;45396;-75
2023/10/11 09:01:45;;;;;;;;;14.33;13.00;;;;;40.09;24.29;100635.97;5097608;27;46658;-74
2023/10/11 09:04:14;;;;;;;;;11.00;10.00;;;;;39.97;25.87;100637.97;5097862;27;45258;-74
2023/10/11 09:06:44;;;;;;;;;14.33;13.33;;;;;39.73;25.16;100631.03;5098526;27;45431;-81
2023/10/11 09:09:32;;;;;;;;;11.33;11.00;;;;;39.63;25.53;100646.53;5098400;27;45412;-81
2023/10/11 09:11:59;;;;;;;;;9.67;9.00;;;;;39.42;24.54;100635.69;5097823;27;45454;-74
2023/10/11 09:14:28;;;;;;;;;9.00;8.00;;;;;39.28;25.31;100633.31;5096059;27;45583;-74
2023/10/11 09:16:57;;;;;;;;;13.00;10.00;;;;;38.54;26.11;100635.19;5097498;27;45483;-75
2023/10/11 09:19:24;;;;;;;;;13.33;13.33;;;;;38.33;25.97;100639.75;5098612;27;45318;-74
2023/10/11 09:22:17;;;;;;;;;10.33;10.00;;;;;38.46;25.20;100643.16;5097817;27;46202;-74
2023/10/11 09:24:44;;;;;;;;;14.00;12.67;;;;;38.43;26.74;100637.94;5097890;27;45617;-74
2023/10/11 09:27:18;;;;;;;;;14.33;11.67;;;;;38.34;27.71;100628.72;5098066;27;45440;-74
2023/10/11 09:29:49;;;;;;;;;14.00;14.00;;;;;38.48;27.82;100648.47;5097660;27;45566;-74
2023/10/11 09:32:27;;;;;;;;;9.67;9.00;;;;;38.47;25.55;100646.75;5097270;27;46404;-74
2023/10/11 09:34:54;;;;;;;;;10.67;10.00;;;;;38.56;25.58;100649.59;5098044;27;45351;-74
2023/10/11 09:37:20;;;;;;;;;10.33;10.00;;;;;38.59;25.69;100649.31;5097463;27;45448;-73
2023/10/11 09:39:47;;;;;;;;;49.00;41.75;;;;;38.55;25.88;100647.84;5097597;27;45606;-81
2023/10/11 09:42:14;;;;;;;;;18.00;17.00;;;;;38.46;26.81;100648.63;5097194;27;45533;-74
2023/10/11 09:44:43;;;;;;;;;12.00;10.67;;;;;38.47;26.05;100649.47;5096907;27;45813;-75
2023/10/11 09:47:19;;;;;;;;;13.67;13.00;;;;;38.50;26.62;100652.81;5097446;27;46496;-82
2023/10/11 09:49:47;;;;;;;;;12.33;11.33;;;;;38.51;27.05;100635.41;5097999;27;45447;-80
2023/10/11 09:52:18;;;;;;;;;11.33;10.67;;;;;38.63;25.63;100647.19;5097025;27;45565;-81
2023/10/11 09:54:45;;;;;;;;;11.67;11.67;;;;;38.66;26.25;100640.56;5091495;27;45483;-82
2023/10/11 09:57:34;;;;;;;;;20.33;18.33;;;;;38.75;27.44;100647.97;5095167;27;45347;-82
2023/10/11 10:00:36;;;;;;;;;15.00;14.00;;;;;38.79;25.88;100654.88;5098698;27;45460;-78
2023/10/11 10:03:05;;;;;;;;;14.00;13.33;;;;;38.70;26.13;100645.66;5087848;27;45691;-74
2023/10/11 10:06:18;;;;;;;;;13.67;11.67;;;;;38.78;26.57;100658.63;5105290;27;45492;-81
2023/10/11 10:08:47;;;;;;;;;12.67;12.67;;;;;38.83;25.98;100648.16;5103831;27;45482;-78
2023/10/11 10:11:13;;;;;;;;;11.33;10.00;;;;;38.61;25.62;100656.50;5067525;27;45377;-81
2023/10/11 10:14:22;;;;;;;;;10.00;10.00;;;;;38.51;26.66;100659.13;5096903;27;46183;-78
2023/10/11 10:17:21;;;;;;;;;13.00;11.00;;;;;38.50;26.78;100657.38;5080344;27;45438;-80
2023/10/11 10:19:47;;;;;;;;;12.00;11.00;;;;;38.44;26.60;100656.06;5052778;28;45290;-78
2023/10/11 10:22:17;;;;;;;;;12.67;12.33;;;;;38.22;26.45;100650.69;5087562;27;45503;-74
2023/10/11 10:24:47;;;;;;;;;20.67;20.67;;;;;38.07;26.06;100651.00;5065827;27;46116;-73
2023/10/11 10:27:33;;;;;;;;;12.00;11.00;;;;;37.90;26.43;100646.06;5097451;27;45353;-76
2023/10/11 10:30:00;;;;;;;;;10.00;10.00;;;;;37.70;26.53;100631.38;5097677;27;45523;-81
2023/10/11 10:32:26;;;;;;;;;11.67;10.00;;;;;37.52;26.27;100607.34;5097062;27;45420;-81
2023/10/11 10:35:19;;;;;;;;;12.33;11.00;;;;;37.62;26.68;100648.38;5097552;27;45393;-81
2023/10/11 10:37:55;;;;;;;;;17.33;13.67;;;;;37.56;26.65;100648.84;5097221;27;45656;-82
2023/10/11 10:40:26;;;;;;;;;12.67;10.67;;;;;37.34;26.92;100649.72;5095848;27;45347;-81
2023/10/11 10:43:23;;;;;;;;;10.33;10.33;;;;;37.12;26.83;100656.91;5095540;27;45415;-80
2023/10/11 10:45:51;;;;;;;;;11.00;10.33;;;;;36.89;27.01;100653.28;5066271;27;45444;-78
2023/10/11 10:48:25;;;;;;;;;55.25;45.00;;;;;36.65;27.82;100638.88;5095706;27;45378;-75
2023/10/11 10:51:01;;;;;;;;;25.00;24.00;;;;;36.65;27.18;100649.75;5096714;27;45338;-75
2023/10/11 10:53:40;;;;;;;;;22.67;20.33;;;;;36.40;27.66;100638.91;5096873;27;45632;-80
2023/10/11 10:56:29;;;;;;;;;22.33;20.00;;;;;36.21;27.13;100644.00;5096816;27;45565;-74
2023/10/11 10:59:14;;;;;;;;;15.67;15.00;;;;;35.97;27.56;100634.00;5095958;27;45635;-80
2023/10/11 11:01:44;;;;;;;;;15.00;14.33;;;;;35.87;27.83;100632.09;5068464;27;45411;-82
2023/10/11 11:04:11;;;;;;;;;12.33;12.33;;;;;35.69;28.36;100608.00;5097084;27;45382;-81
2023/10/11 11:06:46;;;;;;;;;31.25;28.50;;;;;35.67;28.16;100629.00;5096860;27;46207;-82
2023/10/11 11:09:19;;;;;;;;;25.33;24.33;;;;;35.55;28.85;100641.59;5096687;27;45431;-82
2023/10/11 11:11:53;;;;;;;;;18.00;18.00;;;;;35.18;29.63;100617.16;5096641;27;45488;-82
2023/10/11 11:14:19;;;;;;;;;26.00;26.00;;;;;35.22;29.89;100624.09;5096766;27;45491;-80
2023/10/11 11:17:08;;;;;;;;;30.75;27.50;;;;;35.11;29.41;100639.38;5095628;27;46453;-81
2023/10/11 11:19:34;;;;;;;;;36.50;32.00;;;;;34.99;29.46;100636.56;5096470;27;45507;-82
2023/10/11 11:22:15;;;;;;;;;28.25;26.25;;;;;34.84;29.75;100621.38;5096935;27;45661;-81
2023/10/11 11:24:42;;;;;;;;;17.67;17.33;;;;;34.75;30.10;100633.75;5096525;27;45801;-82
2023/10/11 11:27:25;;;;;;;;;22.67;21.67;;;;;34.57;29.78;100611.44;5094761;27;45548;-81
2023/10/11 11:29:54;;;;;;;;;17.33;17.00;;;;;34.64;30.09;100629.06;5096229;27;45698;-82
2023/10/11 11:32:39;;;;;;;;;13.00;12.00;;;;;34.54;30.33;100627.06;5095629;27;45385;-81
2023/10/11 11:35:10;;;;;;;;;14.67;14.00;;;;;34.54;30.06;100627.06;5096016;27;45759;-81
2023/10/11 11:37:40;;;;;;;;;12.67;11.67;;;;;34.50;29.50;100614.69;5096375;27;46195;-81
2023/10/11 11:40:19;;;;;;;;;19.00;17.00;;;;;34.33;30.15;100603.19;5095727;27;45318;-80
2023/10/11 11:42:48;;;;;;;;;13.00;12.00;;;;;34.33;29.91;100610.44;5094555;27;45487;-81
2023/10/11 11:45:15;;;;;;;;;13.67;13.33;;;;;34.25;29.73;100602.84;5096409;27;45290;-80
2023/10/11 11:47:55;;;;;;;;;11.00;10.67;;;;;34.24;29.84;100604.69;5095588;27;45534;-81
2023/10/11 11:50:33;;;;;;;;;15.00;14.00;;;;;34.23;30.34;100602.06;5095880;27;45625;-81
2023/10/11 11:53:00;;;;;;;;;14.67;12.33;;;;;34.05;29.75;100593.31;5099954;27;45380;-81
2023/10/11 11:55:26;;;;;;;;;12.67;10.67;;;;;33.93;30.49;100595.00;5098776;27;45194;-80
2023/10/11 11:57:53;;;;;;;;;10.33;9.67;;;;;33.89;29.56;100588.06;5099178;27;45458;-80
2023/10/11 12:02:54;;;;;;;;;11.00;11.00;;;;;33.96;29.75;100588.50;5099611;27;45459;-81
2023/10/11 12:05:20;;;;;;;;;12.00;11.33;;;;;33.75;30.04;100559.19;5098848;27;45585;-81
2023/10/11 12:07:49;;;;;;;;;11.00;11.00;;;;;33.91;29.28;100579.84;5098454;27;45507;-80
2023/10/11 12:10:24;;;;;;;;;11.00;10.00;;;;;33.92;29.49;100578.84;5098739;27;45460;-79
2023/10/11 12:12:55;;;;;;;;;11.00;11.00;;;;;33.76;29.73;100550.06;5099484;27;45480;-80
2023/10/11 12:15:21;;;;;;;;;9.00;8.33;;;;;33.88;29.68;100570.94;5098951;27;45366;-81
2023/10/11 12:17:54;;;;;;;;;9.33;8.67;;;;;33.77;29.95;100540.13;5098909;27;46304;-81